Time;durP1;ratioP1;P1;durP2;ratioP2;P2;SDS_P1;SDS_P2;PMS_P1;PMS_P2;Temp;Humidity;BMP_temperature;BMP_pressure;BME280_temperature;BME280_humidity;BME280_pressure;Samples;Min_cycle;Max_cycle;Signal;HPM_P1;HPM_P2
2021/11/23 00:00:51;;;;;;;0.13;0.13;;;;;;;2.74;85.79;103311.38;5075587;28;20274;-68
2021/11/23 00:03:18;;;;;;;0.07;0.07;;;;;;;2.75;85.98;103313.22;5076407;28;20033;-69
2021/11/23 00:05:47;;;;;;;0.83;0.83;;;;;;;2.77;85.93;103308.19;5075601;28;20049;-68
2021/11/23 00:08:13;;;;;;;0.10;0.10;;;;;;;2.79;86.14;103310.94;5075283;28;20274;-68
2021/11/23 00:10:40;;;;;;;0.10;0.10;;;;;;;2.81;86.51;103306.84;5058210;28;20294;-69
2021/11/23 00:13:07;;;;;;;0.10;0.10;;;;;;;2.84;86.19;103304.53;5058356;28;20294;-67
2021/11/23 00:15:35;;;;;;;0.13;0.13;;;;;;;2.86;85.86;103303.94;5058172;28;20282;-69
2021/11/23 00:18:05;;;;;;;0.10;0.10;;;;;;;2.92;85.91;103302.72;5075494;28;20365;-70
2021/11/23 00:20:34;;;;;;;0.20;0.20;;;;;;;2.96;86.14;103304.84;5075638;28;20369;-68
2021/11/23 00:23:03;;;;;;;0.10;0.10;;;;;;;3.00;86.04;103305.28;5058527;28;20354;-69
2021/11/23 00:25:32;;;;;;;0.20;0.20;;;;;;;3.05;86.16;103300.56;5041216;28;20326;-68
2021/11/23 00:27:58;;;;;;;0.10;0.10;;;;;;;3.09;86.09;103302.72;5057898;28;20286;-68
2021/11/23 00:30:24;;;;;;;0.10;0.10;;;;;;;3.13;86.03;103299.66;5058023;28;20274;-68
2021/11/23 00:32:50;;;;;;;0.10;0.10;;;;;;;3.19;85.94;103306.19;5075589;28;20055;-67
2021/11/23 00:35:18;;;;;;;0.10;0.10;;;;;;;3.24;86.15;103297.22;5075196;28;20289;-68
2021/11/23 00:37:46;;;;;;;0.10;0.10;;;;;;;3.28;86.13;103288.97;5075751;28;20781;-68
2021/11/23 00:40:12;;;;;;;0.10;0.10;;;;;;;3.32;86.21;103295.34;5074601;28;20317;-70
2021/11/23 00:42:38;;;;;;;0.10;0.10;;;;;;;3.35;85.78;103296.56;5075131;28;20319;-67
2021/11/23 00:45:05;;;;;;;0.43;0.43;;;;;;;3.40;85.76;103295.34;5075363;28;20028;-67
2021/11/23 00:47:30;;;;;;;0.13;0.13;;;;;;;3.45;85.75;103290.63;5041117;28;20668;-68
2021/11/23 00:49:56;;;;;;;0.13;0.13;;;;;;;3.52;86.04;103286.94;5040850;28;20309;-68
2021/11/23 00:52:21;;;;;;;0.10;0.10;;;;;;;3.58;86.14;103292.72;5058411;28;20036;-68
2021/11/23 00:54:47;;;;;;;0.10;0.10;;;;;;;3.64;85.62;103292.38;5077123;28;20103;-67
2021/11/23 00:57:15;;;;;;;0.10;0.10;;;;;;;3.69;85.97;103296.34;5078926;28;20036;-68
2021/11/23 00:59:41;;;;;;;0.10;0.10;;;;;;;3.74;85.78;103300.25;5078879;28;20039;-69
2021/11/23 01:02:07;;;;;;;0.00;0.00;;;;;;;3.80;85.64;103302.56;5061078;28;20299;-69
2021/11/23 01:04:32;;;;;;;0.10;0.10;;;;;;;3.83;85.74;103298.56;5061561;28;20401;-67
2021/11/23 01:06:58;;;;;;;0.10;0.10;;;;;;;3.88;85.42;103298.09;5079174;28;20021;-67
2021/11/23 01:09:24;;;;;;;0.10;0.10;;;;;;;3.91;85.69;103288.03;5079458;28;20016;-68
2021/11/23 01:11:49;;;;;;;0.20;0.20;;;;;;;3.94;85.58;103290.91;5079348;28;20040;-67
2021/11/23 01:14:15;;;;;;;0.10;0.10;;;;;;;3.97;85.63;103286.91;5078911;28;20028;-68
2021/11/23 01:16:44;;;;;;;0.10;0.10;;;;;;;4.01;85.50;103282.00;5079476;28;20060;-69
2021/11/23 01:19:10;;;;;;;0.10;0.10;;;;;;;4.03;85.41;103286.56;5077845;28;20458;-69
2021/11/23 01:21:37;;;;;;;0.10;0.10;;;;;;;4.05;85.46;103289.31;5079320;28;20028;-67
2021/11/23 01:24:03;;;;;;;0.20;0.20;;;;;;;4.09;85.07;103286.22;5078616;28;20024;-68
2021/11/23 01:26:28;;;;;;;0.10;0.10;;;;;;;4.10;85.48;103283.78;5079144;28;20417;-69
2021/11/23 01:28:54;;;;;;;0.10;0.10;;;;;;;4.12;85.15;103289.13;5078691;28;20120;-67
2021/11/23 01:31:19;;;;;;;0.00;0.00;;;;;;;4.15;85.46;103281.63;5078676;28;20043;-69
2021/11/23 01:33:44;;;;;;;0.10;0.10;;;;;;;4.17;85.40;103279.19;5078991;28;20118;-70
2021/11/23 01:36:10;;;;;;;0.10;0.10;;;;;;;4.18;85.17;103276.72;5078406;28;20413;-68
2021/11/23 01:38:35;;;;;;;0.10;0.10;;;;;;;4.20;85.13;103270.03;5061112;28;20036;-68
2021/11/23 01:41:02;;;;;;;0.10;0.10;;;;;;;4.22;84.92;103277.91;5078576;28;20398;-68
2021/11/23 01:43:27;;;;;;;0.10;0.10;;;;;;;4.24;85.11;103273.81;5078711;28;20035;-68
2021/11/23 01:45:53;;;;;;;0.10;0.10;;;;;;;4.24;85.20;103266.91;5078455;28;20040;-67
2021/11/23 01:48:18;;;;;;;0.00;0.00;;;;;;;4.27;85.33;103268.91;5078780;28;20044;-68
2021/11/23 01:50:49;;;;;;;0.10;0.10;;;;;;;4.29;85.23;103272.53;5078649;28;20441;-68
2021/11/23 01:53:16;;;;;;;0.10;0.10;;;;;;;4.32;85.35;103272.84;5061296;28;20033;-67
2021/11/23 01:55:41;;;;;;;0.10;0.10;;;;;;;4.34;85.20;103280.75;5044835;28;20089;-68
2021/11/23 01:58:10;;;;;;;0.10;0.10;;;;;;;4.34;85.33;103273.88;5043450;28;20044;-68
2021/11/23 02:00:40;;;;;;;0.00;0.00;;;;;;;4.37;85.20;103273.28;5078943;28;20067;-68
2021/11/23 02:03:07;;;;;;;0.10;0.10;;;;;;;4.39;85.31;103271.72;5061212;28;20028;-68
2021/11/23 02:05:33;;;;;;;0.00;0.00;;;;;;;4.42;85.12;103265.91;5060987;28;20036;-68
2021/11/23 02:07:59;;;;;;;0.10;0.10;;;;;;;4.42;85.42;103261.59;5078450;28;20016;-68
2021/11/23 02:10:24;;;;;;;0.10;0.10;;;;;;;4.45;85.11;103266.19;5077986;28;20063;-68
2021/11/23 02:12:50;;;;;;;0.00;0.00;;;;;;;4.46;85.08;103263.72;5078947;28;20158;-70
2021/11/23 02:15:16;;;;;;;0.10;0.10;;;;;;;4.49;85.40;103266.59;5077037;28;20025;-68
2021/11/23 02:17:44;;;;;;;0.00;0.00;;;;;;;4.52;85.27;103272.09;5078336;28;20289;-69
2021/11/23 02:20:19;;;;;;;0.10;0.10;;;;;;;4.58;85.40;103263.03;5077650;28;20020;-67
2021/11/23 02:22:46;;;;;;;0.03;0.03;;;;;;;4.63;85.38;103259.19;5043836;28;20064;-69
2021/11/23 02:25:12;;;;;;;0.10;0.10;;;;;;;4.67;85.24;103263.91;5060828;28;20248;-68
2021/11/23 02:27:47;;;;;;;0.03;0.03;;;;;;;4.70;85.20;103258.97;5060759;28;20028;-68
2021/11/23 02:30:13;;;;;;;0.00;0.00;;;;;;;4.75;85.16;103259.38;5044176;28;20036;-68
2021/11/23 02:32:56;;;;;;;0.10;0.10;;;;;;;4.75;84.80;103252.53;5078456;28;20051;-68
2021/11/23 02:35:26;;;;;;;0.10;0.10;;;;;;;4.76;85.01;103246.56;5077889;28;20039;-68
2021/11/23 02:37:53;;;;;;;0.10;0.10;;;;;;;4.77;84.86;103247.44;5078527;28;20048;-68
2021/11/23 02:40:20;;;;;;;0.00;0.00;;;;;;;4.80;85.13;103242.56;5059992;28;20060;-68
2021/11/23 02:42:46;;;;;;;0.00;0.00;;;;;;;4.83;85.20;103240.22;5078275;28;20028;-67
2021/11/23 02:45:14;;;;;;;0.10;0.10;;;;;;;4.84;85.13;103234.25;5077446;28;20036;-68
2021/11/23 02:47:39;;;;;;;0.10;0.10;;;;;;;4.96;85.19;103229.25;5060693;28;20022;-69
2021/11/23 02:50:07;;;;;;;0.10;0.10;;;;;;;4.98;84.83;103225.09;5077078;28;20382;-68
2021/11/23 02:52:32;;;;;;;0.00;0.00;;;;;;;5.00;85.00;103230.44;5077895;28;20100;-69
2021/11/23 02:54:59;;;;;;;0.10;0.10;;;;;;;5.00;84.85;103226.16;5060266;28;20103;-69
2021/11/23 02:57:29;;;;;;;0.10;0.10;;;;;;;5.03;84.45;103223.84;5077928;28;20474;-69
2021/11/23 02:59:55;;;;;;;0.10;0.10;;;;;;;5.02;84.76;103226.28;5077026;28;20028;-69
2021/11/23 03:02:20;;;;;;;0.00;0.00;;;;;;;5.02;84.64;103223.69;5077166;28;20043;-69
2021/11/23 03:04:53;;;;;;;0.10;0.10;;;;;;;5.01;84.86;103221.88;5077212;28;20039;-67
2021/11/23 03:07:19;;;;;;;0.10;0.10;;;;;;;5.01;84.95;103216.69;5060186;28;20028;-68
2021/11/23 03:09:46;;;;;;;0.10;0.10;;;;;;;5.01;84.93;103222.78;5077398;28;20032;-68
2021/11/23 03:12:16;;;;;;;0.10;0.10;;;;;;;5.03;84.99;103222.91;5043383;28;20024;-68
2021/11/23 03:14:42;;;;;;;0.10;0.10;;;;;;;5.05;85.02;103216.19;5059764;28;20020;-68
2021/11/23 03:17:07;;;;;;;0.10;0.10;;;;;;;5.04;85.20;103219.56;5076105;28;20387;-68
2021/11/23 03:19:33;;;;;;;0.17;0.17;;;;;;;5.04;85.05;103211.78;5076432;28;20044;-68
2021/11/23 03:21:58;;;;;;;0.10;0.10;;;;;;;5.04;84.82;103211.78;5059924;28;20024;-68
2021/11/23 03:24:23;;;;;;;0.20;0.20;;;;;;;5.04;84.55;103212.66;5077107;28;20024;-68
2021/11/23 03:26:49;;;;;;;0.10;0.10;;;;;;;5.04;84.87;103217.88;5059988;28;20021;-67
2021/11/23 03:29:16;;;;;;;0.10;0.10;;;;;;;5.05;84.86;103229.19;5076802;28;20276;-69
2021/11/23 03:31:41;;;;;;;0.10;0.10;;;;;;;5.05;85.03;103219.69;5076900;28;20029;-68
2021/11/23 03:34:06;;;;;;;0.00;0.00;;;;;;;5.06;85.08;103220.59;5076693;28;20102;-67
2021/11/23 03:36:33;;;;;;;0.00;0.00;;;;;;;5.08;85.09;103213.84;5076423;28;20040;-67
2021/11/23 03:38:58;;;;;;;0.00;0.00;;;;;;;5.07;85.01;103212.97;5059179;28;20024;-69
2021/11/23 03:41:24;;;;;;;0.10;0.10;;;;;;;5.11;85.19;103226.22;5077021;28;20024;-67
2021/11/23 03:43:49;;;;;;;0.10;0.10;;;;;;;5.14;85.54;103224.78;5077293;28;20028;-68
2021/11/23 03:46:15;;;;;;;0.10;0.10;;;;;;;5.18;85.28;103228.56;5059202;28;20034;-68
2021/11/23 03:48:40;;;;;;;0.20;0.20;;;;;;;5.19;85.08;103217.41;5076779;28;20103;-68
2021/11/23 03:51:06;;;;;;;0.10;0.10;;;;;;;5.20;85.23;103214.97;5058930;28;20040;-68
2021/11/23 03:53:31;;;;;;;0.10;0.10;;;;;;;5.22;85.02;103222.88;5076693;28;20040;-68
2021/11/23 03:55:56;;;;;;;0.10;0.10;;;;;;;5.23;84.97;103211.69;5059318;28;20318;-69
2021/11/23 03:58:22;;;;;;;0.10;0.10;;;;;;;5.23;84.94;103223.00;5076813;28;20104;-67
2021/11/23 04:00:47;;;;;;;0.10;0.10;;;;;;;5.25;84.85;103217.97;5059402;28;20272;-68
2021/11/23 04:03:13;;;;;;;0.10;0.10;;;;;;;5.27;85.16;103218.06;5076523;28;20036;-69
2021/11/23 04:05:38;;;;;;;0.10;0.10;;;;;;;5.28;85.25;103207.81;5058866;28;20055;-68
2021/11/23 04:08:03;;;;;;;0.10;0.10;;;;;;;5.30;85.26;103206.25;5042776;28;20089;-69
2021/11/23 04:10:29;;;;;;;0.17;0.17;;;;;;;5.31;85.17;103205.50;5076471;28;20086;-68
2021/11/23 04:12:54;;;;;;;0.00;0.00;;;;;;;5.33;84.78;103205.63;5076645;28;20029;-67
2021/11/23 04:15:19;;;;;;;0.00;0.00;;;;;;;5.35;85.09;103211.84;5076438;28;20365;-68
2021/11/23 04:17:45;;;;;;;0.10;0.10;;;;;;;5.35;85.26;103215.38;5059259;28;20028;-70
2021/11/23 04:20:24;;;;;;;0.10;0.10;;;;;;;5.35;85.37;103210.19;5076052;28;20119;-68
2021/11/23 04:22:49;;;;;;;0.00;0.00;;;;;;;5.36;85.22;103212.00;5061058;28;20035;-67
2021/11/23 04:25:15;;;;;;;0.10;0.10;;;;;;;5.37;85.25;103212.94;5075778;28;20307;-68
2021/11/23 04:27:40;;;;;;;0.00;0.00;;;;;;;5.39;85.47;103215.63;5076839;28;20016;-66
2021/11/23 04:30:07;;;;;;;0.10;0.10;;;;;;;5.39;85.31;103215.63;5062305;28;20325;-68
2021/11/23 04:32:33;;;;;;;0.10;0.10;;;;;;;5.40;85.67;103207.09;5080567;28;20047;-68
2021/11/23 04:34:58;;;;;;;0.10;0.10;;;;;;;5.42;85.49;103214.22;5062631;28;20028;-68
2021/11/23 04:37:23;;;;;;;0.00;0.00;;;;;;;5.43;85.54;103212.56;5080579;28;20024;-68
2021/11/23 04:39:49;;;;;;;0.10;0.10;;;;;;;5.44;85.51;103216.97;5079964;28;20028;-67
2021/11/23 04:42:15;;;;;;;0.10;0.10;;;;;;;5.45;85.56;103208.38;5079920;28;20060;-69
2021/11/23 04:44:40;;;;;;;0.10;0.10;;;;;;;5.46;85.74;103208.53;5080328;28;20465;-67
2021/11/23 04:47:06;;;;;;;0.10;0.10;;;;;;;5.47;85.79;103199.03;5079903;28;20100;-67
2021/11/23 04:49:32;;;;;;;0.10;0.10;;;;;;;5.47;85.45;103201.63;5079661;28;20101;-68
2021/11/23 04:51:57;;;;;;;0.10;0.10;;;;;;;5.47;85.61;103194.75;5062775;28;20051;-67
2021/11/23 04:54:22;;;;;;;0.07;0.07;;;;;;;5.49;85.74;103200.09;5062819;28;20021;-68
2021/11/23 04:56:48;;;;;;;0.20;0.20;;;;;;;5.50;85.73;103197.59;5062669;28;20048;-67
2021/11/23 04:59:13;;;;;;;0.13;0.13;;;;;;;5.51;85.93;103190.75;5079534;28;20036;-67
2021/11/23 05:01:38;;;;;;;0.00;0.00;;;;;;;5.52;85.88;103195.16;5062042;28;20101;-67
2021/11/23 05:04:04;;;;;;;0.10;0.10;;;;;;;5.53;86.07;103188.28;5045311;28;20078;-67
2021/11/23 05:06:30;;;;;;;0.00;0.00;;;;;;;5.54;85.94;103185.78;5062379;28;20024;-68
2021/11/23 05:08:56;;;;;;;0.00;0.00;;;;;;;5.56;86.15;103185.94;5079433;28;20017;-68
2021/11/23 05:11:21;;;;;;;0.00;0.00;;;;;;;5.56;86.24;103181.66;5079756;28;20031;-68
2021/11/23 05:13:47;;;;;;;0.07;0.07;;;;;;;5.57;86.07;103190.34;5079766;28;20402;-67
2021/11/23 05:16:12;;;;;;;0.10;0.10;;;;;;;5.58;86.29;103185.28;5079385;28;20294;-68
2021/11/23 05:18:38;;;;;;;0.10;0.10;;;;;;;5.59;86.16;103189.72;5078941;28;20029;-66
2021/11/23 05:21:03;;;;;;;0.07;0.07;;;;;;;5.61;86.05;103193.34;5078700;28;20025;-68
2021/11/23 05:23:38;;;;;;;0.03;0.03;;;;;;;5.62;86.12;103189.06;5079664;28;20032;-68
2021/11/23 05:26:03;;;;;;;0.00;0.00;;;;;;;5.63;86.04;103186.59;5073327;28;20099;-68
2021/11/23 05:28:28;;;;;;;0.00;0.00;;;;;;;5.66;86.16;103195.44;5079326;28;20036;-67
2021/11/23 05:30:54;;;;;;;0.10;0.10;;;;;;;5.67;86.01;103192.06;5079143;28;20032;-67
2021/11/23 05:33:20;;;;;;;0.07;0.07;;;;;;;5.68;86.26;103197.41;5062001;28;20023;-67
2021/11/23 05:35:49;;;;;;;0.10;0.10;;;;;;;5.71;86.11;103199.34;5060899;28;20259;-68
2021/11/23 05:38:16;;;;;;;0.00;0.00;;;;;;;5.74;85.89;103200.50;5079048;28;20036;-67
2021/11/23 05:40:44;;;;;;;0.03;0.03;;;;;;;5.79;86.25;103200.91;5078009;28;20025;-67
2021/11/23 05:43:09;;;;;;;0.00;0.00;;;;;;;5.85;86.49;103201.44;5078884;28;20024;-68
2021/11/23 05:45:34;;;;;;;0.10;0.10;;;;;;;5.90;86.78;103188.81;5078581;28;20028;-66
2021/11/23 05:47:59;;;;;;;0.03;0.03;;;;;;;5.93;86.59;103193.38;5079728;28;20017;-66
2021/11/23 05:50:25;;;;;;;0.00;0.00;;;;;;;5.94;86.90;103190.91;5079217;28;20021;-67
2021/11/23 05:52:50;;;;;;;0.20;0.20;;;;;;;5.96;86.79;103183.22;5079646;28;20052;-67
2021/11/23 05:55:16;;;;;;;0.03;0.03;;;;;;;5.94;86.83;103187.41;5078716;28;20055;-67
2021/11/23 05:57:41;;;;;;;0.00;0.00;;;;;;;5.91;86.58;103181.16;5078360;28;20032;-67
2021/11/23 06:00:07;;;;;;;0.10;0.10;;;;;;;5.88;86.26;103186.13;5078870;28;20030;-68
2021/11/23 06:02:32;;;;;;;0.00;0.00;;;;;;;5.87;86.54;103185.97;5078958;28;20086;-66
2021/11/23 06:04:59;;;;;;;0.00;0.00;;;;;;;5.87;86.80;103192.06;5078673;28;20378;-66
2021/11/23 06:07:25;;;;;;;0.10;0.10;;;;;;;5.86;86.91;103185.06;5078928;28;20020;-66
2021/11/23 06:09:50;;;;;;;0.00;0.00;;;;;;;5.86;86.88;103190.25;5078406;28;20031;-67
2021/11/23 06:12:15;;;;;;;0.00;0.00;;;;;;;5.86;86.83;103198.06;5060694;28;20087;-67
2021/11/23 06:14:41;;;;;;;0.00;0.00;;;;;;;5.86;87.07;103190.25;5078576;28;20378;-67
2021/11/23 06:17:09;;;;;;;0.10;0.10;;;;;;;5.88;86.79;103190.41;5078581;28;20032;-67
2021/11/23 06:19:34;;;;;;;0.10;0.10;;;;;;;5.88;86.92;103190.41;5077797;28;20021;-67
2021/11/23 06:22:00;;;;;;;0.10;0.10;;;;;;;5.88;86.92;103193.91;5061245;28;20283;-67
2021/11/23 06:24:25;;;;;;;0.10;0.10;;;;;;;5.90;87.06;103187.16;5077944;28;20101;-68
2021/11/23 06:26:51;;;;;;;0.10;0.10;;;;;;;5.91;86.95;103199.38;5061352;28;20078;-67
2021/11/23 06:29:16;;;;;;;0.00;0.00;;;;;;;5.90;87.04;103192.34;5060328;28;20040;-67
2021/11/23 06:31:41;;;;;;;0.00;0.00;;;;;;;5.90;86.94;103194.94;5060738;28;20397;-67
2021/11/23 06:34:08;;;;;;;0.10;0.10;;;;;;;5.90;86.92;103188.81;5077811;28;20020;-67
2021/11/23 06:36:34;;;;;;;0.00;0.00;;;;;;;5.92;87.06;103197.69;5060998;28;20020;-67
2021/11/23 06:39:01;;;;;;;0.10;0.10;;;;;;;5.93;87.13;103195.97;5077884;28;20032;-67
2021/11/23 06:41:26;;;;;;;0.00;0.00;;;;;;;5.94;87.05;103201.31;5059914;28;20307;-67
2021/11/23 06:43:52;;;;;;;0.03;0.03;;;;;;;5.96;87.13;103198.84;5078061;28;20040;-67
2021/11/23 06:46:17;;;;;;;0.00;0.00;;;;;;;5.98;87.07;103203.38;5077868;28;20103;-67
2021/11/23 06:48:42;;;;;;;0.10;0.10;;;;;;;6.00;87.25;103201.84;5060374;28;20379;-66
2021/11/23 06:51:08;;;;;;;0.10;0.10;;;;;;;6.02;87.27;103202.91;5077695;28;20029;-67
2021/11/23 06:53:33;;;;;;;0.03;0.03;;;;;;;6.05;87.25;103207.47;5077614;28;20283;-67
2021/11/23 06:55:58;;;;;;;0.00;0.00;;;;;;;6.10;87.11;103207.88;5077911;28;20048;-66
2021/11/23 06:58:24;;;;;;;0.00;0.00;;;;;;;6.12;87.32;103206.28;5077428;28;20409;-66
2021/11/23 07:00:49;;;;;;;0.10;0.10;;;;;;;6.12;87.25;103214.09;5043910;28;20031;-66
2021/11/23 07:03:15;;;;;;;0.10;0.10;;;;;;;6.13;87.16;103211.63;5077432;28;20036;-67
2021/11/23 07:05:40;;;;;;;0.00;0.00;;;;;;;6.14;87.26;103216.06;5077273;28;20047;-66
2021/11/23 07:08:06;;;;;;;0.10;0.10;;;;;;;6.13;87.10;103211.63;5077232;28;20406;-67
2021/11/23 07:10:31;;;;;;;0.00;0.00;;;;;;;6.14;87.11;103223.88;5077282;28;20074;-67
2021/11/23 07:12:57;;;;;;;0.10;0.10;;;;;;;6.16;87.23;103229.22;5077728;28;20024;-66
2021/11/23 07:15:22;;;;;;;0.10;0.10;;;;;;;6.15;87.10;103229.97;5077321;28;20040;-67
2021/11/23 07:17:48;;;;;;;0.00;0.00;;;;;;;6.14;87.16;103234.28;5077308;28;20020;-67
2021/11/23 07:20:13;;;;;;;0.00;0.00;;;;;;;6.15;87.03;103235.16;5076352;28;20410;-66
2021/11/23 07:22:39;;;;;;;0.00;0.00;;;;;;;6.13;86.96;103234.13;5077244;28;20299;-67
2021/11/23 07:25:05;;;;;;;0.00;0.00;;;;;;;6.12;87.00;103243.66;5077411;28;20299;-66
2021/11/23 07:27:30;;;;;;;0.00;0.00;;;;;;;6.10;86.82;103241.69;5077417;28;20025;-67
2021/11/23 07:29:55;;;;;;;0.00;0.00;;;;;;;6.08;86.93;103238.94;5077121;28;20302;-66
2021/11/23 07:32:21;;;;;;;0.10;0.10;;;;;;;6.07;86.36;103236.19;5077358;28;20294;-67
2021/11/23 07:34:46;;;;;;;0.10;0.10;;;;;;;6.03;87.02;103238.56;5076710;28;20375;-67
2021/11/23 07:37:11;;;;;;;0.10;0.10;;;;;;;6.04;86.77;103242.97;5076461;28;20041;-67
2021/11/23 07:39:37;;;;;;;0.00;0.00;;;;;;;6.09;86.52;103245.97;5076792;28;20028;-67
2021/11/23 07:42:04;;;;;;;0.00;0.00;;;;;;;6.13;86.96;103249.75;5077117;28;20329;-67
2021/11/23 07:44:30;;;;;;;0.10;0.10;;;;;;;6.16;86.90;103239.63;5076492;28;20039;-66
2021/11/23 07:46:55;;;;;;;0.00;0.00;;;;;;;6.17;86.49;103244.91;5042403;28;20029;-66
2021/11/23 07:49:21;;;;;;;0.10;0.10;;;;;;;6.19;87.03;103247.66;5075991;28;20020;-64
2021/11/23 07:51:47;;;;;;;0.00;0.00;;;;;;;6.23;86.84;103241.91;5077098;28;20290;-66
2021/11/23 07:54:14;;;;;;;0.10;0.10;;;;;;;6.23;87.00;103248.84;5076827;28;20153;-67
2021/11/23 07:56:40;;;;;;;0.10;0.10;;;;;;;6.23;87.00;103248.84;5076678;28;20094;-67
2021/11/23 07:59:05;;;;;;;0.00;0.00;;;;;;;6.22;87.46;103253.13;5059021;28;20074;-66
2021/11/23 08:01:30;;;;;;;0.10;0.10;;;;;;;6.20;87.16;103249.47;5075691;28;20032;-67
2021/11/23 08:03:56;;;;;;;0.10;0.10;;;;;;;6.21;87.05;103256.50;5080987;28;20286;-65
2021/11/23 08:06:21;;;;;;;0.10;0.10;;;;;;;6.21;86.94;103268.63;5073731;28;20336;-66
2021/11/23 08:08:47;;;;;;;0.00;0.00;;;;;;;6.19;86.72;103260.66;5082605;28;20102;-66
2021/11/23 08:11:13;;;;;;;0.00;0.00;;;;;;;6.19;86.99;103255.47;5082764;28;20021;-67
2021/11/23 08:13:39;;;;;;;0.00;0.00;;;;;;;6.17;87.17;103260.53;5082393;28;20025;-66
2021/11/23 08:16:04;;;;;;;0.00;0.00;;;;;;;6.19;87.15;103265.88;5081760;28;20043;-65
2021/11/23 08:18:31;;;;;;;0.10;0.10;;;;;;;6.21;87.10;103263.41;5064607;28;20021;-65
2021/11/23 08:20:57;;;;;;;0.00;0.00;;;;;;;6.23;87.25;103264.44;5064402;28;20125;-66
2021/11/23 08:23:23;;;;;;;0.00;0.00;;;;;;;6.24;87.22;103264.59;5065125;28;20027;-66
2021/11/23 08:25:48;;;;;;;0.10;0.10;;;;;;;6.29;87.43;103278.00;5082207;28;20028;-66
2021/11/23 08:28:14;;;;;;;0.10;0.10;;;;;;;6.30;87.44;103275.50;5081414;28;20111;-66
2021/11/23 08:30:40;;;;;;;0.00;0.00;;;;;;;6.32;87.38;103270.44;5082557;28;20071;-66
2021/11/23 08:33:06;;;;;;;0.00;0.00;;;;;;;6.35;87.56;103275.88;5083555;28;20066;-67
2021/11/23 08:35:31;;;;;;;0.00;0.00;;;;;;;6.40;87.55;103276.25;5082498;28;20024;-67
2021/11/23 08:37:57;;;;;;;0.00;0.00;;;;;;;6.40;87.32;103274.59;5065654;28;20410;-66
2021/11/23 08:40:22;;;;;;;0.00;0.00;;;;;;;6.46;87.48;103271.59;5082658;28;20024;-66
2021/11/23 08:42:47;;;;;;;0.10;0.10;;;;;;;6.51;87.46;103274.56;5082543;28;20116;-66
2021/11/23 08:45:13;;;;;;;0.00;0.00;;;;;;;6.54;87.63;103267.94;5083165;28;20062;-66
2021/11/23 08:47:39;;;;;;;0.00;0.00;;;;;;;6.63;87.43;103275.63;5064998;28;20070;-66
2021/11/23 08:50:06;;;;;;;0.00;0.00;;;;;;;6.73;87.74;103278.19;5065172;28;20394;-66
2021/11/23 08:52:33;;;;;;;0.00;0.00;;;;;;;6.83;87.69;103281.56;5082412;28;20102;-66
2021/11/23 08:54:58;;;;;;;0.07;0.07;;;;;;;6.92;87.63;103273.59;5082784;28;20029;-67
2021/11/23 08:57:24;;;;;;;0.00;0.00;;;;;;;7.01;87.74;103274.34;5083098;28;20034;-66
2021/11/23 08:59:51;;;;;;;0.00;0.00;;;;;;;7.05;87.79;103266.03;5065520;28;20302;-66
2021/11/23 09:02:17;;;;;;;0.00;0.00;;;;;;;7.11;87.66;103269.09;5065643;28;20021;-66
2021/11/23 09:04:43;;;;;;;0.00;0.00;;;;;;;7.21;87.60;103273.38;5082504;28;20033;-66
2021/11/23 09:07:12;;;;;;;0.10;0.10;;;;;;;7.31;87.52;103274.13;5083187;28;20085;-66
2021/11/23 09:09:40;;;;;;;0.10;0.10;;;;;;;7.40;87.62;103277.47;5082593;28;20032;-66
2021/11/23 09:12:06;;;;;;;0.00;0.00;;;;;;;7.42;87.58;103281.13;5083223;28;20397;-67
2021/11/23 09:14:33;;;;;;;0.00;0.00;;;;;;;7.46;87.40;103283.19;5081319;28;20103;-66
2021/11/23 09:17:00;;;;;;;0.10;0.10;;;;;;;7.52;87.33;103287.97;5079489;28;20039;-66
2021/11/23 09:19:26;;;;;;;0.07;0.07;;;;;;;7.58;87.29;103292.78;5078554;28;20410;-66
2021/11/23 09:21:52;;;;;;;0.10;0.10;;;;;;;7.72;87.08;103293.88;5080058;28;20387;-67
2021/11/23 09:24:18;;;;;;;0.00;0.00;;;;;;;7.76;86.62;103298.53;5079849;28;20029;-66
2021/11/23 09:26:46;;;;;;;0.10;0.10;;;;;;;7.77;86.43;103296.06;5079560;28;20416;-66
2021/11/23 09:29:13;;;;;;;0.10;0.10;;;;;;;7.80;86.48;103295.41;5062039;28;20031;-67
2021/11/23 09:31:40;;;;;;;0.00;0.00;;;;;;;7.81;86.03;103290.31;5062293;28;20398;-65
2021/11/23 09:34:06;;;;;;;0.00;0.00;;;;;;;7.82;86.25;103288.59;5079030;28;20303;-67
2021/11/23 09:36:31;;;;;;;0.20;0.20;;;;;;;7.84;86.05;103289.63;5061989;28;20028;-66
2021/11/23 09:38:57;;;;;;;0.30;0.30;;;;;;;7.87;86.29;103289.88;5078787;28;20372;-66
2021/11/23 09:41:22;;;;;;;0.10;0.10;;;;;;;7.89;86.19;103292.59;5079358;28;20043;-65
2021/11/23 09:43:47;;;;;;;0.57;0.57;;;;;;;7.92;85.95;103291.13;5079138;28;20032;-66
2021/11/23 09:46:13;;;;;;;0.10;0.10;;;;;;;7.95;85.82;103296.59;5079281;28;20111;-66
2021/11/23 09:48:44;;;;;;;0.10;0.10;;;;;;;8.02;85.88;103297.09;5078779;28;20086;-66
2021/11/23 09:51:23;;;;;;;0.10;0.10;;;;;;;8.06;85.72;103299.13;5078871;28;20082;-66
2021/11/23 09:53:48;;;;;;;0.20;0.20;;;;;;;8.06;85.66;103296.53;5079175;28;20031;-65
2021/11/23 09:56:13;;;;;;;0.00;0.00;;;;;;;8.06;85.54;103297.44;5078537;28;20036;-68
2021/11/23 09:58:39;;;;;;;0.10;0.10;;;;;;;8.04;85.57;103298.13;5078532;28;20036;-67
2021/11/23 10:01:08;;;;;;;0.20;0.20;;;;;;;8.01;85.58;103293.56;5078415;28;20040;-66
2021/11/23 10:03:34;;;;;;;0.10;0.10;;;;;;;8.03;85.42;103298.91;5078857;28;20039;-66
2021/11/23 10:06:11;;;;;;;0.10;0.10;;;;;;;8.03;85.52;103301.53;5061201;28;20051;-67
2021/11/23 10:08:42;;;;;;;0.10;0.10;;;;;;;8.13;85.45;103297.91;5060945;28;20039;-65
2021/11/23 10:11:09;;;;;;;0.10;0.10;;;;;;;8.39;85.31;103297.31;5061075;28;20111;-66
2021/11/23 10:13:41;;;;;;;0.10;0.10;;;;;;;8.65;84.41;103299.34;5078049;28;20450;-66
2021/11/23 10:16:06;;;;;;;0.20;0.20;;;;;;;8.92;84.06;103290.84;5061472;28;20056;-65
2021/11/23 10:18:32;;;;;;;0.20;0.20;;;;;;;9.23;83.21;103293.13;5061081;28;20059;-65
2021/11/23 10:21:00;;;;;;;0.37;0.37;;;;;;;9.44;80.04;103287.59;5078301;28;20105;-65
2021/11/23 10:23:27;;;;;;;0.23;0.23;;;;;;;9.49;80.26;103291.47;5077494;28;20371;-65
2021/11/23 10:26:00;;;;;;;0.23;0.23;;;;;;;9.40;79.89;103301.28;5078280;28;20110;-65
2021/11/23 10:28:28;;;;;;;0.30;0.30;;;;;;;9.24;80.47;103297.53;5060795;28;20025;-66
2021/11/23 10:30:55;;;;;;;0.20;0.20;;;;;;;9.09;80.83;103301.66;5044533;28;20025;-67
2021/11/23 10:33:21;;;;;;;0.30;0.30;;;;;;;8.84;82.32;103292.88;5078091;28;20041;-68
2021/11/23 10:35:51;;;;;;;0.27;0.27;;;;;;;8.65;83.11;103301.94;5077896;28;20047;-68
2021/11/23 10:38:17;;;;;;;0.10;0.10;;;;;;;8.54;83.83;103291.47;5078223;28;20025;-68
2021/11/23 10:40:44;;;;;;;0.20;0.20;;;;;;;8.49;84.43;103289.41;5077839;28;20120;-68
2021/11/23 10:43:12;;;;;;;0.10;0.10;;;;;;;8.46;85.72;103290.88;5078431;28;20064;-67
2021/11/23 10:45:40;;;;;;;0.20;0.20;;;;;;;8.44;85.59;103284.59;5077347;28;20428;-67
2021/11/23 10:48:07;;;;;;;0.13;0.13;;;;;;;8.44;85.68;103287.22;5060768;28;20103;-67
2021/11/23 10:50:34;;;;;;;0.10;0.10;;;;;;;8.44;85.68;103287.22;5077702;28;20347;-67
2021/11/23 10:53:15;;;;;;;0.10;0.10;;;;;;;8.44;85.78;103277.69;5078291;28;20024;-67
2021/11/23 10:55:44;;;;;;;0.10;0.10;;;;;;;8.44;85.22;103282.00;5060401;28;20032;-66
2021/11/23 10:58:12;;;;;;;0.10;0.10;;;;;;;8.46;85.20;103275.22;5060670;28;20309;-66
2021/11/23 11:00:43;;;;;;;0.10;0.10;;;;;;;8.50;85.13;103277.25;5076915;28;20047;-66
2021/11/23 11:03:10;;;;;;;0.20;0.20;;;;;;;8.55;84.79;103270.72;5078031;28;20029;-67
2021/11/23 11:05:40;;;;;;;0.20;0.20;;;;;;;8.57;84.43;103266.50;5076976;28;20036;-66
2021/11/23 11:08:07;;;;;;;0.10;0.10;;;;;;;8.59;84.59;103267.53;5077835;28;20046;-65
2021/11/23 11:10:33;;;;;;;0.13;0.13;;;;;;;8.63;84.56;103269.59;5077241;28;20172;-66
2021/11/23 11:13:01;;;;;;;0.40;0.40;;;;;;;8.64;84.50;103263.56;5077202;28;20391;-65
2021/11/23 11:15:37;;;;;;;0.20;0.20;;;;;;;8.69;84.66;103258.69;5059425;28;20028;-65
2021/11/23 11:18:08;;;;;;;0.10;0.10;;;;;;;8.74;84.84;103261.63;5058958;28;20037;-66
2021/11/23 11:20:41;;;;;;;0.30;0.30;;;;;;;8.77;84.63;103254.00;5059684;28;20031;-66
2021/11/23 11:23:27;;;;;;;0.10;0.10;;;;;;;8.78;84.32;103258.47;5077781;28;20028;-66
2021/11/23 11:26:17;;;;;;;0.30;0.30;;;;;;;8.79;84.28;103250.72;5077612;28;20391;-67
2021/11/23 11:28:50;;;;;;;0.20;0.20;;;;;;;8.87;84.43;103250.41;5077024;28;20279;-67
2021/11/23 11:31:46;;;;;;;0.20;0.20;;;;;;;8.96;84.46;103256.28;5077025;28;20024;-66